Mineral Point, WI

11:01 PM CDT on July 21, 2017 (GMT -0500)
Iowa County

Weather History for KMRJ - December, 2013

Change the Weather History Date:

Sunday, December 29, 2013

  Actual Average (KLNR) Record (KLNR)
Temperature  
Mean Temperature 16 °F -  
Max Temperature 37 °F 27 °F 50 °F (1999)
Min Temperature -4 °F 12 °F -2 °F (2013)
Degree Days  
Heating Degree Days 48    
Moisture  
Dew Point 12 °F    
Average Humidity 75    
Maximum Humidity 93    
Minimum Humidity 55    
Precipitation  
Precipitation 0.00 in - - ()
Sea Level Pressure  
Sea Level Pressure 29.98 in    
Wind  
Wind Speed 13 mph (NW)    
Max Wind Speed 23 mph    
Max Gust Speed 30 mph    
Visibility 10 miles    
Events      
Averages and records for this station are not official NWS values.
T = Trace of Precipitation, MM = Missing Value Source: NWS Daily Summary

Daily Weather History Graph

Daily Weather History Graph

Search for Another Location

Airport or City:

Trip Planner

Search our weather history database for the weather conditions in past years. The results will help you decide how hot, cold, wet, or windy it might be!

Date:

Astronomy

Dec. 29, 2013 Rise Set
Actual Time 7:31 AM CST 4:34 PM CST
Civil Twilight 6:59 AM CST 5:07 PM CST
Nautical Twilight 6:23 AM CST 5:42 PM CST
Astronomical Twilight 5:49 AM CST 6:17 PM CST
Moon 4:13 AM CST (12/29) 2:14 PM CST (12/29)
Length of Visible Light 10h 07m
Length of Day
9h 03m
Waning Crescent, 11% of the Moon is Illuminated
Dec 29
Waning Crescent
Jan 1
New
Jan 7
First Quarter
Jan 15
Full
Jan 23
Last Quarter

Hourly Weather History & Observations

Time (CST) Temp. Windchill Dew Point Humidity Pressure Visibility Wind Dir Wind Speed Gust Speed Precip Events Conditions
12:15 AM 37.4 °F 31.4 °F 30.2 °F 75% 29.73 in - WSW 8.1 mph - N/A   Clear
12:35 AM 35.6 °F 28.0 °F 30.2 °F 81% 29.71 in - West 10.4 mph - N/A   Clear
12:55 AM 35.6 °F 26.6 °F 30.2 °F 81% 29.72 in 10.0 mi West 13.8 mph - N/A   Clear
1:15 AM 35.6 °F 26.2 °F 30.2 °F 81% 29.72 in 10.0 mi West 15.0 mph - N/A   Clear
1:35 AM 33.8 °F 24.3 °F 30.2 °F 87% 29.73 in - WNW 13.8 mph - N/A   Scattered Clouds
1:55 AM 33.8 °F 25.8 °F 30.2 °F 87% 29.74 in - West 10.4 mph - N/A   Mostly Cloudy
2:15 AM 35.6 °F 27.5 °F 32.0 °F 87% 29.75 in - WNW 11.5 mph 18.4 mph N/A   Overcast
2:35 AM 35.6 °F 28.6 °F 32.0 °F 87% 29.76 in - WNW 9.2 mph 19.6 mph N/A   Overcast
2:55 AM 35.6 °F 27.1 °F 32.0 °F 87% 29.76 in - NW 12.7 mph - N/A   Overcast
3:15 AM 35.6 °F 27.1 °F 32.0 °F 87% 29.76 in - NW 12.7 mph - N/A   Overcast
3:35 AM 33.8 °F 25.8 °F 32.0 °F 93% 29.77 in - NW 10.4 mph - N/A   Overcast
3:55 AM 33.8 °F 24.3 °F 32.0 °F 93% 29.78 in - NW 13.8 mph 19.6 mph N/A   Overcast
4:15 AM 33.8 °F 23.5 °F 32.0 °F 93% 29.78 in - NNW 16.1 mph 24.2 mph N/A   Overcast
4:35 AM 33.8 °F 24.3 °F 32.0 °F 93% 29.79 in - NNW 13.8 mph 23.0 mph N/A   Overcast
4:55 AM 33.8 °F 23.2 °F 32.0 °F 93% 29.80 in - NW 17.3 mph 23.0 mph N/A   Overcast
5:15 AM 32.0 °F 21.6 °F 30.2 °F 93% 29.81 in - NW 15.0 mph 21.9 mph N/A   Overcast
5:35 AM 30.2 °F 19.8 °F 28.4 °F 93% 29.83 in - NNW 13.8 mph 24.2 mph N/A   Overcast
5:55 AM 30.2 °F 17.8 °F 26.6 °F 86% 29.84 in - NW 19.6 mph 25.3 mph N/A   Overcast
6:15 AM 28.4 °F 15.4 °F 26.6 °F 93% 29.85 in - NW 19.6 mph 26.5 mph N/A   Overcast
6:35 AM 28.4 °F 16.2 °F 23.0 °F 80% 29.87 in - NNW 17.3 mph 29.9 mph N/A   Overcast
6:55 AM 26.6 °F 12.0 °F 23.0 °F 86% 29.88 in - NNW 23.0 mph 29.9 mph N/A   Overcast
7:15 AM 26.6 °F 13.1 °F 23.0 °F 86% 29.90 in - NW 19.6 mph 25.3 mph N/A   Overcast
7:35 AM 26.6 °F 13.1 °F 23.0 °F 86% 29.91 in - NNW 19.6 mph 24.2 mph N/A   Overcast
7:55 AM 26.6 °F 13.1 °F 23.0 °F 86% 29.92 in - NNW 19.6 mph - N/A   Overcast
8:15 AM 24.8 °F 11.5 °F 21.2 °F 86% 29.93 in - NNW 17.3 mph 21.9 mph N/A   Overcast
8:35 AM 24.8 °F 10.3 °F 21.2 °F 86% 29.94 in - NNW 20.7 mph 27.6 mph N/A   Overcast
8:55 AM 24.8 °F 11.5 °F 19.4 °F 80% 29.95 in - NNW 17.3 mph 27.6 mph N/A   Overcast
9:15 AM 23.0 °F 9.2 °F 19.4 °F 86% 29.96 in - North 17.3 mph 24.2 mph N/A   Overcast
9:35 AM 23.0 °F 8.0 °F 19.4 °F 86% 29.97 in - NNW 20.7 mph - N/A   Overcast
9:55 AM 23.0 °F 8.0 °F 17.6 °F 80% 29.98 in - NNW 20.7 mph 26.5 mph N/A   Overcast
10:15 AM 23.0 °F 9.2 °F 17.6 °F 80% 29.99 in - NNW 17.3 mph 23.0 mph N/A   Overcast
10:35 AM 23.0 °F 9.2 °F 15.8 °F 74% 29.99 in - NNW 17.3 mph 24.2 mph N/A   Overcast
10:55 AM 23.0 °F 8.3 °F 14.0 °F 68% 29.99 in - NNW 19.6 mph 25.3 mph N/A   Overcast
11:15 AM 23.0 °F 8.3 °F 14.0 °F 68% 29.99 in - NNW 19.6 mph 25.3 mph N/A   Overcast
11:35 AM 21.2 °F 6.0 °F 12.2 °F 68% 29.99 in - NW 19.6 mph 27.6 mph N/A   Overcast
11:55 AM 21.2 °F 6.0 °F 12.2 °F 68% 30.00 in - NW 19.6 mph 27.6 mph N/A   Overcast
12:15 PM 21.2 °F 6.0 °F 12.2 °F 68% 30.00 in 10.0 mi NW 19.6 mph 23.0 mph N/A   Overcast
12:35 PM 21.2 °F 8.3 °F 10.4 °F 63% 30.00 in 10.0 mi NW 13.8 mph 25.3 mph N/A   Overcast
12:55 PM 19.4 °F 5.5 °F 10.4 °F 68% 30.01 in 10.0 mi NW 15.0 mph 23.0 mph N/A   Overcast
1:15 PM 21.2 °F 8.3 °F 10.4 °F 63% 30.01 in 10.0 mi NW 13.8 mph 18.4 mph N/A   Overcast
1:35 PM 19.4 °F 6.0 °F 10.4 °F 68% 30.02 in 10.0 mi NNW 13.8 mph 18.4 mph N/A   Overcast
1:55 PM 19.4 °F 5.0 °F 10.4 °F 68% 30.02 in - NW 16.1 mph - N/A   Overcast
2:15 PM 19.4 °F 5.0 °F 8.6 °F 63% 30.02 in - NW 16.1 mph 20.7 mph N/A   Overcast
2:35 PM 17.6 °F 2.7 °F 8.6 °F 68% 30.03 in - NNW 16.1 mph 21.9 mph N/A   Overcast
2:55 PM 17.6 °F 5.7 °F 8.6 °F 68% 30.04 in - NW 10.4 mph 18.4 mph N/A   Overcast
3:15 PM 15.8 °F 0.3 °F 6.8 °F 68% 30.05 in - NW 16.1 mph 20.7 mph N/A   Overcast
3:35 PM 14.0 °F -0.8 °F 5.0 °F 67% 30.06 in - NW 13.8 mph 19.6 mph N/A   Overcast
3:55 PM 14.0 °F -0.2 °F 5.0 °F 67% 30.07 in - NW 12.7 mph - N/A   Overcast
4:15 PM 12.2 °F -3.1 °F 5.0 °F 73% 30.08 in - NW 13.8 mph 18.4 mph N/A   Overcast
4:35 PM 12.2 °F -1.8 °F 3.2 °F 67% 30.09 in - NW 11.5 mph 18.4 mph N/A   Overcast
4:55 PM 10.4 °F -4.8 °F 3.2 °F 73% 30.09 in - NW 12.7 mph 18.4 mph N/A   Overcast
5:15 PM 10.4 °F -6.0 °F 1.4 °F 67% 30.10 in - NW 15.0 mph - N/A   Overcast
5:35 PM 8.6 °F -7.0 °F 1.4 °F 73% 30.11 in - NW 12.7 mph 21.9 mph N/A   Mostly Cloudy
5:55 PM 8.6 °F -7.0 °F -0.4 °F 67% 30.11 in - NNW 12.7 mph 18.4 mph N/A   Scattered Clouds
6:15 PM 6.8 °F -7.8 °F -0.4 °F 72% 30.12 in - NW 10.4 mph 18.4 mph N/A   Clear
6:35 PM 5.0 °F -9.1 °F -2.2 °F 72% 30.14 in - NW 9.2 mph 17.3 mph N/A   Clear
6:55 PM 5.0 °F -10.8 °F -4.0 °F 66% 30.14 in - NW 11.5 mph 20.7 mph N/A   Clear
7:15 PM 5.0 °F -10.0 °F -4.0 °F 66% 30.15 in - NW 10.4 mph - N/A   Clear
7:35 PM 3.2 °F -12.2 °F -5.8 °F 66% 30.15 in - NW 10.4 mph 16.1 mph N/A   Clear
7:55 PM 3.2 °F -10.3 °F -5.8 °F 66% 30.16 in - NW 8.1 mph - N/A   Clear
8:15 PM 3.2 °F -11.3 °F -5.8 °F 66% 30.17 in - NW 9.2 mph - N/A   Clear
8:35 PM 3.2 °F -12.2 °F -7.6 °F 61% 30.17 in - NW 10.4 mph - N/A   Clear
8:55 PM 1.4 °F -15.3 °F -9.4 °F 61% 30.16 in - NW 11.5 mph - N/A   Clear
9:15 PM 1.4 °F -11.3 °F -9.4 °F 61% 30.17 in - NW 6.9 mph - N/A   Clear
9:35 PM 1.4 °F -9.9 °F -9.4 °F 61% 30.17 in - NW 5.8 mph - N/A   Clear
9:55 PM -0.4 °F -15.7 °F -11.2 °F 60% 30.18 in - NW 9.2 mph - N/A   Clear
10:15 PM -0.4 °F -13.4 °F -11.2 °F 60% 30.18 in - NW 6.9 mph - N/A   Clear
10:35 PM -0.4 °F -15.7 °F -13.0 °F 55% 30.18 in - NW 9.2 mph - N/A   Clear
10:55 PM -2.2 °F -18.0 °F -13.0 °F 60% 30.18 in - NW 9.2 mph - N/A   Clear
11:15 PM -2.2 °F -16.8 °F -13.0 °F 60% 30.20 in - NW 8.1 mph - N/A   Clear
11:35 PM -4.0 °F -16.3 °F -13.0 °F 65% 30.20 in - NW 5.8 mph - N/A   Clear
11:55 PM -4.0 °F - -14.8 °F 60% 30.21 in - Calm Calm - N/A   Clear